Strona główna
METAR-TAF:

METAR-TAF

Lotnisko :

Port lotniczy Guilin-Liangjiang

Guilin, Chiny

Szerokość geograficzna: 25-20N, Długość geograficzna: 110-18E, wysokość: 166 m

Aktualna obserwacja pogody

Raport powstał 44 minut temu, godzina 02:00 UTC
Wiatr 4 kt z kierunków zmiennych
Temperatura 20°C
Wilgotność 78%
Ciśnienie 1018 hPa
Widzialność: 9000 m
Zachmurzenie całkowite na wysokości 5000 ft

METAR: ZGKL 180200Z VRB02MPS 9000 OVC050 20/16 Q1018 NOSIG

czas: 10:44 (02:44 UTC)

Prognoza

Raport powstał 7 godziny i 30 minut temu, godzina 19:14 UTC
Prognoza ważna od 18 godzina 00 UTC do 18 godzina 24 UTC
Wiatr 8 kt od północny wschód
Widzialność: 6000 m
Rozproszone chmury na wysokości 3300 ft

TAF: ZGKL 171914Z 1800/1824 05004MPS 6000 SCT033 TX23/1808Z TN15/1822Z

Obserwacja i prognoza pogody dla ponad 4000 lotnisk (raport METAR i TAF).

Dostępne stacje oznaczono żółtymi i czerwonymi punktami na mapie.

Najedź kursorem aby zobaczyć nazwę stacji.

Kliknij aby zobaczyć obserwacje i prognozy pogody.

Aby zmienić mapę: kliknij na zielony przycisk z czarnym krzyżykiem, aby powiększyć; na zielony przycisk z myślnikiem, aby pomniejszyć; na zielone strzałki, aby przejść do map sąsiednich.


METAR-TAF: